Time;durP1;ratioP1;P1;durP2;ratioP2;P2;SDS_P1;SDS_P2;PMS_P1;PMS_P2;Temp;Humidity;BMP_temperature;BMP_pressure;BME280_temperature;BME280_humidity;BME280_pressure;Samples;Min_cycle;Max_cycle;Signal;HPM_P1;HPM_P2
2023/06/12 00:00:05;;;;;;;3.33;2.80;;;24.00;86.00;;;;;;5016298;28;20018;-39
2023/06/12 00:02:31;;;;;;;2.92;2.65;;;24.00;86.10;;;;;;5015899;28;20022;-38
2023/06/12 00:04:57;;;;;;;5.15;2.40;;;24.00;86.70;;;;;;5013621;28;20072;-38
2023/06/12 00:07:25;;;;;;;5.78;3.78;;;23.90;86.50;;;;;;5014881;28;20433;-38
2023/06/12 00:09:51;;;;;;;3.20;2.88;;;23.90;86.10;;;;;;5015412;28;20510;-38
2023/06/12 00:12:17;;;;;;;5.30;2.80;;;23.90;86.50;;;;;;5014452;28;20022;-38
2023/06/12 00:14:43;;;;;;;3.45;2.78;;;23.80;86.70;;;;;;5015384;28;20494;-38
2023/06/12 00:17:08;;;;;;;2.95;2.45;;;23.80;86.70;;;;;;5015321;28;20014;-39
2023/06/12 00:19:34;;;;;;;3.55;2.97;;;23.80;86.80;;;;;;5014614;28;20032;-38
2023/06/12 00:22:01;;;;;;;4.63;2.53;;;23.70;86.60;;;;;;5015872;28;20106;-39
2023/06/12 00:24:27;;;;;;;2.85;2.63;;;23.70;86.50;;;;;;5015012;28;20022;-39
2023/06/12 00:26:53;;;;;;;4.03;2.72;;;23.70;87.20;;;;;;5015208;28;20524;-40
2023/06/12 00:29:18;;;;;;;6.32;2.72;;;23.60;87.10;;;;;;5005159;28;20083;-38
2023/06/12 00:31:44;;;;;;;2.97;2.72;;;23.60;87.30;;;;;;5016010;28;20018;-40
2023/06/12 00:34:10;;;;;;;3.72;3.05;;;23.60;87.00;;;;;;5013816;28;20029;-48
2023/06/12 00:36:35;;;;;;;3.13;2.53;;;23.60;87.10;;;;;;5015271;28;20117;-38
2023/06/12 00:39:02;;;;;;;4.93;3.20;;;23.60;87.00;;;;;;5013129;28;20034;-38
2023/06/12 00:41:28;;;;;;;3.90;2.67;;;23.60;87.10;;;;;;5018758;28;20105;-40
2023/06/12 00:43:53;;;;;;;3.15;2.72;;;23.60;87.10;;;;;;5027838;28;20067;-39
2023/06/12 00:46:19;;;;;;;5.70;2.80;;;23.60;87.00;;;;;;5018836;28;20044;-38
2023/06/12 00:48:47;;;;;;;4.50;3.08;;;23.60;87.20;;;;;;5013526;28;20041;-32
2023/06/12 00:51:12;;;;;;;;;;;23.60;86.80;;;;;;5011643;28;20084;-33
2023/06/12 00:53:38;;;;;;;3.58;2.65;;;23.70;86.40;;;;;;5021301;28;19913;-30
2023/06/12 00:56:04;;;;;;;5.40;2.72;;;23.70;86.60;;;;;;5034691;28;20044;-31
2023/06/12 00:58:30;;;;;;;5.05;3.20;;;23.60;86.80;;;;;;5035206;28;20068;-31
2023/06/12 01:00:56;;;;;;;2.75;2.38;;;23.60;86.40;;;;;;5031973;28;20143;-30
2023/06/12 01:03:24;;;;;;;3.05;2.75;;;23.60;86.40;;;;;;5034612;28;20025;-35
2023/06/12 01:05:51;;;;;;;3.80;3.00;;;23.60;86.40;;;;;;5027914;28;20037;-32
2023/06/12 01:08:39;;;;;;;4.32;2.85;;;23.70;86.70;;;;;;5038363;28;20528;-34
2023/06/12 01:11:09;;;;;;;4.18;3.05;;;23.60;86.80;;;;;;5033663;28;20044;-35
2023/06/12 01:13:35;;;;;;;3.17;2.88;;;23.60;86.30;;;;;;5034618;28;20539;-34
2023/06/12 01:16:02;;;;;;;3.25;2.80;;;23.60;86.60;;;;;;5031332;28;20026;-33
2023/06/12 01:18:29;;;;;;;3.57;2.60;;;23.50;86.70;;;;;;5034593;28;20067;-33
2023/06/12 01:20:58;;;;;;;6.32;2.95;;;23.50;86.80;;;;;;5034274;28;20022;-33
2023/06/12 01:23:39;;;;;;;3.85;2.55;;;23.40;86.80;;;;;;5034584;28;20021;-31
2023/06/12 01:26:33;;;;;;;5.25;3.15;;;23.40;87.00;;;;;;5034400;28;20037;-35
2023/06/12 01:29:24;;;;;;;5.97;2.60;;;23.50;87.00;;;;;;5034253;28;20025;-31
2023/06/12 01:32:12;;;;;;;5.20;3.00;;;23.40;86.90;;;;;;4995237;28;20042;-31
2023/06/12 01:35:03;;;;;;;2.60;2.40;;;23.30;86.90;;;;;;5010935;28;20555;-31
2023/06/12 01:37:44;;;;;;;3.72;2.90;;;23.30;87.10;;;;;;5033949;28;20032;-34
2023/06/12 01:40:12;;;;;;;4.22;2.85;;;23.30;87.30;;;;;;5034169;28;20048;-34
2023/06/12 01:42:38;;;;;;;7.10;2.58;;;23.20;87.40;;;;;;5019324;28;20030;-33
2023/06/12 01:45:05;;;;;;;4.13;2.37;;;23.20;87.30;;;;;;5018781;28;20466;-37
2023/06/12 01:47:31;;;;;;;2.60;2.40;;;23.20;87.40;;;;;;5030895;28;20052;-31
2023/06/12 01:49:57;;;;;;;3.05;2.50;;;23.20;87.60;;;;;;5033971;28;20053;-34
2023/06/12 01:52:22;;;;;;;6.22;3.33;;;23.20;87.50;;;;;;5033957;28;20469;-33
2023/06/12 01:54:48;;;;;;;3.88;2.70;;;23.10;87.50;;;;;;5027447;28;20038;-36
2023/06/12 01:57:21;;;;;;;2.85;2.65;;;23.10;87.70;;;;;;5033796;28;20040;-33
2023/06/12 01:59:48;;;;;;;4.28;3.58;;;23.00;87.70;;;;;;5031258;28;20032;-46
2023/06/12 02:02:15;;;;;;;3.37;2.60;;;23.00;88.20;;;;;;5033721;28;20024;-32
2023/06/12 02:04:40;;;;;;;12.20;3.00;;;22.90;88.20;;;;;;5033978;28;20271;-32
2023/06/12 02:07:06;;;;;;;5.15;2.80;;;22.90;88.20;;;;;;5031873;28;20030;-31
2023/06/12 02:09:32;;;;;;;4.88;2.90;;;22.80;88.10;;;;;;5033473;28;20029;-34
2023/06/12 02:12:00;;;;;;;3.00;2.63;;;22.90;88.50;;;;;;5033540;28;20025;-32
2023/06/12 02:14:25;;;;;;;3.05;2.72;;;22.80;88.50;;;;;;5031456;28;20458;-41
2023/06/12 02:16:54;;;;;;;3.45;2.85;;;22.70;88.90;;;;;;5029282;28;20044;-41
2023/06/12 02:19:25;;;;;;;7.40;3.17;;;22.60;89.20;;;;;;5033636;28;20053;-42
2023/06/12 02:21:55;;;;;;;3.95;3.42;;;22.60;89.10;;;;;;5033818;28;20532;-41
2023/06/12 02:24:25;;;;;;;3.17;2.58;;;22.60;89.40;;;;;;5030618;28;20108;-41
2023/06/12 02:26:50;;;;;;;4.18;2.63;;;22.50;89.20;;;;;;5032090;28;20030;-41
2023/06/12 02:29:16;;;;;;;2.95;2.58;;;22.50;89.30;;;;;;5033366;28;20032;-75
2023/06/12 02:31:41;;;;;;;3.40;2.70;;;22.40;89.80;;;;;;5029798;28;20037;-41
2023/06/12 02:34:07;;;;;;;9.05;2.83;;;22.40;90.10;;;;;;5033318;28;20030;-41
2023/06/12 02:36:39;;;;;;;3.13;2.83;;;22.30;90.10;;;;;;5033317;28;20028;-41
2023/06/12 02:39:09;;;;;;;4.18;2.70;;;22.20;90.60;;;;;;5031470;28;20026;-41
2023/06/12 02:41:35;;;;;;;12.13;3.00;;;22.10;90.50;;;;;;5033389;28;20018;-42
2023/06/12 02:44:01;;;;;;;4.25;2.60;;;22.10;90.40;;;;;;5033393;28;20555;-42
2023/06/12 02:46:27;;;;;;;3.75;2.90;;;22.00;90.60;;;;;;5019349;28;20026;-50
2023/06/12 02:48:53;;;;;;;3.30;2.70;;;21.90;90.60;;;;;;5013292;28;20022;-39
2023/06/12 02:51:18;;;;;;;6.38;2.72;;;21.90;90.60;;;;;;5013326;28;20029;-41
2023/06/12 02:53:44;;;;;;;3.30;2.58;;;21.80;90.60;;;;;;5013209;28;20564;-41
2023/06/12 02:56:09;;;;;;;4.13;3.20;;;21.80;90.80;;;;;;5011505;28;20117;-41
2023/06/12 02:58:35;;;;;;;5.75;2.47;;;21.70;90.90;;;;;;5024088;28;20021;-40
2023/06/12 03:01:04;;;;;;;4.00;3.15;;;21.60;90.80;;;;;;5024813;28;20025;-40
2023/06/12 03:03:29;;;;;;;3.03;2.72;;;21.60;90.80;;;;;;5032856;28;20083;-39
2023/06/12 03:05:55;;;;;;;4.90;2.47;;;21.50;91.10;;;;;;5032864;28;20347;-41
2023/06/12 03:08:21;;;;;;;3.60;2.85;;;21.40;91.00;;;;;;5032800;28;20040;-43
2023/06/12 03:10:46;;;;;;;3.00;2.70;;;21.40;91.00;;;;;;5032840;28;20030;-39
2023/06/12 03:13:12;;;;;;;3.65;3.25;;;21.40;91.00;;;;;;5032830;28;20029;-40
2023/06/12 03:15:38;;;;;;;3.10;2.80;;;21.30;91.10;;;;;;5023022;28;20490;-41
2023/06/12 03:18:04;;;;;;;3.95;3.03;;;21.30;91.20;;;;;;5012993;28;20430;-41
2023/06/12 03:20:32;;;;;;;3.97;3.15;;;21.20;91.50;;;;;;5012954;28;20056;-40
2023/06/12 03:22:59;;;;;;;4.60;3.13;;;21.10;91.80;;;;;;5012903;28;20029;-41
2023/06/12 03:25:25;;;;;;;7.03;3.72;;;21.10;91.80;;;;;;5013112;28;20071;-41
2023/06/12 03:27:50;;;;;;;3.28;2.53;;;21.10;91.90;;;;;;5013268;28;20101;-49
2023/06/12 03:30:16;;;;;;;3.50;3.10;;;21.00;92.40;;;;;;5028793;28;20116;-38
2023/06/12 03:32:42;;;;;;;2.97;2.55;;;21.00;92.20;;;;;;5036589;28;20111;-41
2023/06/12 03:35:08;;;;;;;5.75;3.63;;;21.00;92.50;;;;;;5035332;28;20028;-40
2023/06/12 03:37:33;;;;;;;3.08;2.63;;;21.00;92.40;;;;;;5036675;28;20036;-41
2023/06/12 03:39:59;;;;;;;3.13;2.50;;;20.90;92.10;;;;;;5036432;28;20493;-39
2023/06/12 03:42:25;;;;;;;3.13;2.83;;;20.90;92.30;;;;;;5036410;28;20428;-39
2023/06/12 03:44:50;;;;;;;4.35;3.13;;;20.80;92.40;;;;;;5033970;28;20037;-41
2023/06/12 03:47:16;;;;;;;4.78;3.47;;;20.80;92.30;;;;;;5034830;28;20087;-41
2023/06/12 03:49:42;;;;;;;6.25;3.33;;;20.80;92.30;;;;;;5036244;28;20536;-41
2023/06/12 03:52:08;;;;;;;3.65;2.75;;;20.80;92.20;;;;;;5036306;28;20036;-39
2023/06/12 03:54:34;;;;;;;6.38;2.95;;;20.80;92.20;;;;;;5036276;28;20497;-39
2023/06/12 03:56:59;;;;;;;6.43;3.38;;;20.80;92.20;;;;;;5026068;28;20096;-39
2023/06/12 03:59:25;;;;;;;3.42;2.55;;;20.70;92.70;;;;;;5025430;28;20029;-40
2023/06/12 04:01:52;;;;;;;2.67;2.47;;;20.70;92.40;;;;;;5036204;28;20474;-41
2023/06/12 04:04:18;;;;;;;4.13;2.75;;;20.70;92.20;;;;;;5036380;28;20026;-41
2023/06/12 04:06:45;;;;;;;4.20;3.50;;;20.70;92.40;;;;;;5036072;28;20045;-41
2023/06/12 04:09:15;;;;;;;4.82;3.20;;;20.70;92.40;;;;;;5033328;28;20099;-40
2023/06/12 04:11:42;;;;;;;3.65;3.35;;;20.70;92.20;;;;;;5035309;28;20068;-40
2023/06/12 04:14:08;;;;;;;6.77;2.77;;;20.60;92.50;;;;;;5033704;28;20053;-41
2023/06/12 04:16:34;;;;;;;4.63;3.20;;;20.70;92.60;;;;;;5036072;28;20091;-40
2023/06/12 04:19:03;;;;;;;2.83;2.47;;;20.70;92.30;;;;;;5034030;28;20028;-41
2023/06/12 04:21:30;;;;;;;4.68;2.90;;;20.60;92.40;;;;;;5036055;28;20489;-67
2023/06/12 04:23:56;;;;;;;6.82;2.67;;;20.60;92.30;;;;;;5027369;28;20054;-56
2023/06/12 04:26:24;;;;;;;3.20;2.55;;;20.70;92.10;;;;;;5014512;28;20135;-40
2023/06/12 04:28:49;;;;;;;6.05;2.95;;;20.70;92.20;;;;;;5016151;28;20418;-40
2023/06/12 04:31:15;;;;;;;5.63;3.53;;;20.60;92.00;;;;;;5035654;28;20021;-40
2023/06/12 04:33:41;;;;;;;4.18;2.85;;;20.70;91.80;;;;;;5034286;28;20039;-41
2023/06/12 04:36:13;;;;;;;3.17;2.75;;;20.70;92.20;;;;;;5035683;28;20060;-40
2023/06/12 04:38:39;;;;;;;3.47;2.85;;;20.80;92.00;;;;;;5031796;28;20033;-41
2023/06/12 04:41:11;;;;;;;6.28;2.83;;;20.70;92.30;;;;;;5033319;28;20025;-40
2023/06/12 04:43:38;;;;;;;3.67;3.17;;;20.70;92.40;;;;;;5035402;28;20049;-39
2023/06/12 04:46:05;;;;;;;7.57;3.20;;;20.70;92.20;;;;;;5032941;28;20033;-40
2023/06/12 04:48:31;;;;;;;3.53;2.83;;;20.70;92.10;;;;;;5035357;28;20021;-40
2023/06/12 04:50:58;;;;;;;6.35;2.92;;;20.80;92.30;;;;;;5035185;28;20029;-41
2023/06/12 04:53:29;;;;;;;7.97;3.00;;;20.70;92.30;;;;;;5031244;28;20029;-40
2023/06/12 04:55:56;;;;;;;2.80;2.60;;;20.80;92.40;;;;;;5033665;28;20401;-40
2023/06/12 04:58:22;;;;;;;5.88;3.28;;;20.80;92.00;;;;;;5015243;28;20030;-46
2023/06/12 05:00:48;;;;;;;15.02;3.13;;;20.90;92.10;;;;;;5027125;28;20381;-42
2023/06/12 05:03:17;;;;;;;4.18;3.05;;;20.90;92.00;;;;;;5035327;28;20485;-40
2023/06/12 05:05:46;;;;;;;4.80;3.50;;;20.90;92.40;;;;;;5035072;28;20555;-41
2023/06/12 05:08:13;;;;;;;6.80;3.38;;;20.90;92.40;;;;;;5033273;28;20041;-30
2023/06/12 05:10:39;;;;;;;3.87;3.13;;;20.90;92.80;;;;;;5034711;28;20028;-34
2023/06/12 05:13:05;;;;;;;3.40;2.42;;;20.90;92.60;;;;;;5033416;28;20504;-30
2023/06/12 05:15:31;;;;;;;3.83;2.92;;;21.00;92.70;;;;;;5031951;28;20056;-31
2023/06/12 05:17:57;;;;;;;11.02;3.15;;;21.00;92.40;;;;;;5034582;28;20096;-33
2023/06/12 05:20:23;;;;;;;5.43;3.42;;;21.00;92.50;;;;;;5034596;28;20469;-33
2023/06/12 05:22:49;;;;;;;4.65;3.10;;;21.10;92.00;;;;;;5031710;28;20022;-37
2023/06/12 05:25:15;;;;;;;6.55;3.83;;;21.20;92.30;;;;;;5034589;28;20536;-33
2023/06/12 05:27:41;;;;;;;5.18;3.15;;;21.20;92.40;;;;;;5033162;28;20029;-35
2023/06/12 05:30:07;;;;;;;4.50;3.38;;;21.30;92.40;;;;;;5021118;28;20080;-39
2023/06/12 05:32:34;;;;;;;3.93;3.00;;;21.40;92.50;;;;;;5015097;28;20026;-39
2023/06/12 05:35:00;;;;;;;5.53;3.33;;;21.40;92.60;;;;;;5014785;28;20021;-38
2023/06/12 05:37:26;;;;;;;4.05;3.08;;;21.50;92.60;;;;;;5027811;28;20030;-41
2023/06/12 05:39:53;;;;;;;4.43;2.83;;;21.60;92.40;;;;;;5034320;28;20037;-38
2023/06/12 05:42:19;;;;;;;5.63;3.38;;;21.70;92.60;;;;;;5034232;28;20034;-39
2023/06/12 05:44:46;;;;;;;4.35;3.15;;;21.80;92.00;;;;;;5033571;28;20048;-37
2023/06/12 05:47:12;;;;;;;4.13;3.08;;;22.00;91.80;;;;;;5029978;28;20041;-38
2023/06/12 05:49:38;;;;;;;3.83;2.80;;;22.00;91.90;;;;;;5034190;28;20037;-42
2023/06/12 05:52:05;;;;;;;4.88;2.58;;;22.10;91.90;;;;;;5034103;28;20436;-39
2023/06/12 05:54:30;;;;;;;4.00;2.60;;;22.20;92.20;;;;;;5034074;28;20036;-42
2023/06/12 05:56:56;;;;;;;6.72;3.28;;;22.30;91.90;;;;;;5023909;28;20034;-37
2023/06/12 05:59:23;;;;;;;4.20;3.20;;;22.50;91.90;;;;;;5032110;28;20021;-40
2023/06/12 06:01:49;;;;;;;3.28;2.97;;;22.70;92.10;;;;;;5016826;28;20505;-42
2023/06/12 06:04:16;;;;;;;5.40;3.47;;;22.80;91.60;;;;;;5029095;28;20021;-39
2023/06/12 06:06:42;;;;;;;4.30;3.03;;;23.00;91.20;;;;;;5030707;28;20559;-41
2023/06/12 06:09:08;;;;;;;5.93;3.45;;;23.00;91.50;;;;;;5027260;28;20061;-42
2023/06/12 06:11:33;;;;;;;3.25;2.78;;;23.30;91.50;;;;;;5029142;28;20518;-36
2023/06/12 06:13:59;;;;;;;4.22;3.38;;;24.10;91.10;;;;;;5029935;28;20120;-38
2023/06/12 06:16:25;;;;;;;3.95;2.85;;;24.60;90.70;;;;;;5029716;28;20079;-39
2023/06/12 06:18:51;;;;;;;3.28;2.97;;;24.60;90.40;;;;;;5033563;28;20088;-40
2023/06/12 06:21:17;;;;;;;5.25;2.97;;;24.60;90.50;;;;;;5033679;28;20108;-40
2023/06/12 06:23:43;;;;;;;4.68;3.17;;;24.90;89.60;;;;;;5032010;28;20112;-41
2023/06/12 06:26:09;;;;;;;5.63;3.65;;;25.30;90.00;;;;;;5026250;28;20386;-43
2023/06/12 06:28:36;;;;;;;7.35;3.75;;;25.80;88.10;;;;;;5030068;28;20044;-38
2023/06/12 06:31:03;;;;;;;4.50;3.60;;;26.60;88.20;;;;;;5012780;28;20029;-39
2023/06/12 06:33:29;;;;;;;;;;;27.20;87.90;;;;;;5014135;28;20273;-40
2023/06/12 06:35:55;;;;;;;9.47;3.17;;;27.10;87.30;;;;;;5012880;28;20330;-39
2023/06/12 06:38:22;;;;;;;5.90;2.90;;;27.10;87.30;;;;;;5011613;28;20061;-38
2023/06/12 06:40:48;;;;;;;6.30;2.92;;;27.00;86.40;;;;;;5013346;28;20021;-39
2023/06/12 06:43:15;;;;;;;5.83;3.23;;;27.00;87.20;;;;;;5002615;28;20490;-39
2023/06/12 06:45:40;;;;;;;7.07;3.17;;;27.20;86.70;;;;;;4993764;28;20541;-36
2023/06/12 06:48:07;;;;;;;5.15;3.15;;;27.50;85.80;;;;;;5012620;28;20038;-39
2023/06/12 06:50:33;;;;;;;;;;;27.40;86.70;;;;;;5013792;28;20033;-38
2023/06/12 06:52:59;;;;;;;8.47;3.30;;;27.50;87.20;;;;;;5013270;28;20389;-38
2023/06/12 06:55:24;;;;;;;4.32;3.22;;;27.60;87.30;;;;;;5012938;28;20046;-40
2023/06/12 06:57:50;;;;;;;4.07;3.55;;;27.50;85.90;;;;;;5013226;28;20486;-39
2023/06/12 07:00:16;;;;;;;6.70;3.42;;;27.30;86.50;;;;;;5013215;28;20041;-39
2023/06/12 07:02:45;;;;;;;11.57;3.90;;;27.30;86.50;;;;;;5012763;28;20025;-45
2023/06/12 07:05:11;;;;;;;4.32;3.25;;;27.70;85.20;;;;;;5013313;28;20509;-39
2023/06/12 07:07:38;;;;;;;5.25;3.13;;;28.60;85.20;;;;;;5013119;28;20059;-56
2023/06/12 07:10:05;;;;;;;11.07;3.70;;;30.00;84.40;;;;;;5012998;28;20105;-40
2023/06/12 07:12:32;;;;;;;;;;;31.10;82.80;;;;;;5013710;28;20030;-38
2023/06/12 07:14:58;;;;;;;3.78;2.97;;;32.30;81.70;;;;;;5013118;28;20372;-40
2023/06/12 07:17:23;;;;;;;3.03;2.83;;;32.60;80.20;;;;;;5012278;28;20026;-40
2023/06/12 07:19:49;;;;;;;3.55;3.25;;;32.90;80.50;;;;;;5013070;28;20048;-40
2023/06/12 07:22:15;;;;;;;10.48;3.63;;;32.60;79.80;;;;;;5013026;28;20022;-40
2023/06/12 07:24:41;;;;;;;8.48;3.30;;;32.30;79.80;;;;;;5012938;28;20030;-39
2023/06/12 07:27:07;;;;;;;4.32;3.00;;;32.60;80.10;;;;;;5012882;28;20026;-42
2023/06/12 07:29:32;;;;;;;11.95;3.25;;;33.00;79.60;;;;;;5013164;28;20550;-40
2023/06/12 07:31:58;;;;;;;6.15;2.95;;;33.30;79.40;;;;;;5012983;28;20105;-38
2023/06/12 07:34:24;;;;;;;3.17;2.87;;;33.30;78.70;;;;;;5012200;28;20037;-38
2023/06/12 07:36:50;;;;;;;5.40;3.50;;;33.20;78.60;;;;;;5027991;28;20435;-40
2023/06/12 07:39:15;;;;;;;4.28;3.10;;;33.00;77.90;;;;;;5013181;28;20022;-39
2023/06/12 07:41:42;;;;;;;6.13;3.47;;;33.00;77.70;;;;;;5012737;28;20022;-39
2023/06/12 07:44:08;;;;;;;;;;;32.80;78.20;;;;;;5017723;28;20028;-40
2023/06/12 07:46:34;;;;;;;6.45;3.15;;;32.50;77.80;;;;;;5023938;28;19944;-53
2023/06/12 07:49:00;;;;;;;3.20;2.90;;;32.20;77.90;;;;;;5032688;28;20075;-36
2023/06/12 07:51:26;;;;;;;3.65;3.20;;;31.80;79.30;;;;;;5029993;28;20036;-38
2023/06/12 07:53:52;;;;;;;4.30;3.30;;;31.30;78.90;;;;;;5031243;28;20384;-41
2023/06/12 07:56:17;;;;;;;3.33;3.00;;;31.20;77.90;;;;;;5011489;28;20499;-40
2023/06/12 07:58:45;;;;;;;9.30;3.47;;;31.20;79.30;;;;;;5017704;28;20036;-41
2023/06/12 08:01:14;;;;;;;5.20;3.35;;;31.10;79.70;;;;;;5028112;28;20027;-41
2023/06/12 08:03:40;;;;;;;3.85;3.30;;;31.30;78.30;;;;;;5032298;28;20022;-40
2023/06/12 08:06:11;;;;;;;10.00;3.97;;;31.50;77.00;;;;;;5032587;28;20113;-40
2023/06/12 08:08:40;;;;;;;12.45;3.28;;;31.60;77.30;;;;;;5032119;28;20448;-40
2023/06/12 08:11:07;;;;;;;3.22;3.03;;;31.50;77.90;;;;;;5032212;28;20544;-42
2023/06/12 08:13:34;;;;;;;5.95;3.72;;;31.80;77.30;;;;;;5031079;28;20048;-44
2023/06/12 08:16:00;;;;;;;;;;;32.10;76.60;;;;;;5030251;28;20029;-42
2023/06/12 08:18:26;;;;;;;3.33;2.95;;;32.10;77.90;;;;;;5035848;28;19911;-44
2023/06/12 08:20:52;;;;;;;3.37;2.43;;;32.20;77.80;;;;;;5033825;28;20037;-41
2023/06/12 08:23:18;;;;;;;3.80;2.83;;;32.60;76.60;;;;;;5034311;28;20030;-39
2023/06/12 08:25:43;;;;;;;11.13;3.07;;;32.70;77.50;;;;;;5025913;28;20095;-36
2023/06/12 08:28:12;;;;;;;4.50;3.20;;;32.70;77.70;;;;;;5030925;28;20712;-33
2023/06/12 08:30:38;;;;;;;6.88;3.15;;;32.30;76.10;;;;;;5028214;28;20030;-36
2023/06/12 08:33:04;;;;;;;6.80;3.10;;;32.40;76.40;;;;;;5030810;28;20421;-31
2023/06/12 08:35:30;;;;;;;;;;;32.60;75.10;;;;;;5031109;28;20478;-34
2023/06/12 08:37:56;;;;;;;4.60;3.10;;;32.40;75.10;;;;;;5015587;28;19910;-30
2023/06/12 08:40:22;;;;;;;5.93;3.33;;;32.70;74.10;;;;;;5019064;28;20037;-32
2023/06/12 08:42:51;;;;;;;4.88;3.00;;;32.90;74.30;;;;;;5028089;28;20037;-33
2023/06/12 08:45:19;;;;;;;3.00;2.80;;;32.60;74.20;;;;;;5031490;28;20445;-33
2023/06/12 08:47:48;;;;;;;5.38;3.15;;;32.90;73.70;;;;;;5035390;28;20558;-33
2023/06/12 08:50:16;;;;;;;3.00;2.70;;;33.20;73.60;;;;;;5035354;28;20025;-31
2023/06/12 08:52:42;;;;;;;7.63;2.97;;;33.50;74.00;;;;;;5033525;28;20363;-35
2023/06/12 08:55:09;;;;;;;5.68;2.95;;;33.90;73.00;;;;;;5030921;28;20028;-33
2023/06/12 08:57:38;;;;;;;7.18;2.63;;;34.20;71.70;;;;;;5030729;28;20540;-38
2023/06/12 09:00:14;;;;;;;6.68;3.42;;;33.80;71.30;;;;;;5033748;28;20504;-34
2023/06/12 09:02:46;;;;;;;8.63;2.78;;;33.70;72.60;;;;;;5034577;28;20109;-36
2023/06/12 09:05:18;;;;;;;6.20;2.85;;;33.70;73.00;;;;;;5030295;28;20023;-41
2023/06/12 09:07:45;;;;;;;3.58;3.08;;;33.70;71.50;;;;;;5034579;28;20072;-40
2023/06/12 09:10:11;;;;;;;5.10;3.17;;;33.90;72.60;;;;;;5034715;28;20113;-34
2023/06/12 09:12:39;;;;;;;3.38;3.10;;;34.10;72.80;;;;;;5029652;28;20459;-41
2023/06/12 09:15:05;;;;;;;5.10;2.97;;;34.10;70.80;;;;;;5015099;28;20061;-41
2023/06/12 09:17:33;;;;;;;3.95;2.80;;;34.00;71.60;;;;;;5007932;28;20026;-58
2023/06/12 09:20:00;;;;;;;4.60;2.95;;;34.10;71.80;;;;;;5012714;28;20022;-41
2023/06/12 09:22:25;;;;;;;6.90;3.13;;;33.80;72.20;;;;;;5012113;28;20026;-48
2023/06/12 09:24:51;;;;;;;7.03;3.30;;;33.20;71.20;;;;;;5012339;28;20032;-39
2023/06/12 09:27:21;;;;;;;5.50;2.85;;;31.90;72.00;;;;;;5009175;28;20030;-39
2023/06/12 09:29:46;;;;;;;4.90;2.83;;;31.30;72.30;;;;;;4999618;28;20034;-39
2023/06/12 09:32:15;;;;;;;3.87;3.00;;;31.10;71.30;;;;;;5026794;28;20029;-44
2023/06/12 09:34:48;;;;;;;6.38;3.30;;;31.40;71.50;;;;;;5034302;28;20025;-40
2023/06/12 09:37:14;;;;;;;2.90;2.70;;;31.40;71.50;;;;;;5028915;28;20381;-41
2023/06/12 09:39:42;;;;;;;3.42;3.13;;;31.60;71.70;;;;;;5028749;28;20444;-41
2023/06/12 09:42:10;;;;;;;4.35;3.35;;;31.50;71.40;;;;;;5031401;28;20021;-39
2023/06/12 09:44:38;;;;;;;5.60;2.80;;;31.40;73.00;;;;;;4994709;28;20033;-39
2023/06/12 09:47:05;;;;;;;3.75;3.20;;;31.30;73.70;;;;;;5016401;28;20548;-46
2023/06/12 09:49:33;;;;;;;4.38;2.80;;;31.10;72.90;;;;;;5034370;28;20029;-43
2023/06/12 09:52:05;;;;;;;5.03;2.95;;;31.00;74.00;;;;;;5032869;28;20033;-42
2023/06/12 09:54:32;;;;;;;4.20;3.20;;;30.60;74.00;;;;;;5026010;28;20025;-45
2023/06/12 09:57:00;;;;;;;6.80;2.80;;;30.60;73.90;;;;;;5033736;28;20041;-35
2023/06/12 09:59:28;;;;;;;2.85;2.65;;;30.50;74.00;;;;;;5046965;28;20026;-38
2023/06/12 10:02:04;;;;;;;4.80;2.63;;;30.70;73.10;;;;;;5031953;28;20033;-40
2023/06/12 10:04:50;;;;;;;;;;;30.90;73.50;;;;;;5034607;28;20060;-40
2023/06/12 10:07:21;;;;;;;4.47;2.60;;;30.80;72.90;;;;;;4994664;28;19910;-41
2023/06/12 10:09:47;;;;;;;4.22;3.28;;;31.00;73.60;;;;;;4994523;28;20038;-39
2023/06/12 10:12:14;;;;;;;6.80;2.90;;;31.30;73.30;;;;;;5019344;28;20516;-40
2023/06/12 10:14:40;;;;;;;3.25;2.72;;;31.60;72.70;;;;;;5045386;28;20036;-34
2023/06/12 10:17:07;;;;;;;4.22;2.65;;;31.70;71.90;;;;;;5033403;28;20029;-36
2023/06/12 10:19:37;;;;;;;11.88;2.88;;;31.40;72.20;;;;;;5028116;28;20025;-36
2023/06/12 10:22:06;;;;;;;4.50;3.13;;;31.40;72.60;;;;;;5033375;28;20553;-48
2023/06/12 10:24:32;;;;;;;10.13;2.92;;;31.60;71.30;;;;;;5033286;28;20398;-33
2023/06/12 10:26:58;;;;;;;2.67;2.47;;;31.40;71.40;;;;;;5020524;28;20430;-36
2023/06/12 10:29:33;;;;;;;3.58;2.80;;;31.40;71.10;;;;;;5015975;28;20090;-33
2023/06/12 10:32:09;;;;;;;5.30;2.78;;;31.70;71.10;;;;;;5032193;28;20029;-36
2023/06/12 10:34:39;;;;;;;2.72;2.50;;;31.70;71.40;;;;;;5025444;28;20493;-31
2023/06/12 10:37:25;;;;;;;4.00;3.17;;;31.40;71.60;;;;;;5032878;28;20021;-33
2023/06/12 10:40:21;;;;;;;3.55;3.13;;;30.90;70.60;;;;;;5029277;28;20029;-30
2023/06/12 10:42:53;;;;;;;3.45;2.80;;;30.90;71.60;;;;;;5033127;28;20026;-40
2023/06/12 10:45:24;;;;;;;3.50;2.67;;;31.20;72.10;;;;;;5027644;28;20489;-31
2023/06/12 10:48:08;;;;;;;4.43;2.83;;;31.70;69.50;;;;;;5033012;28;20025;-32
2023/06/12 10:50:53;;;;;;;3.58;3.28;;;31.90;68.80;;;;;;5033031;28;20036;-31
2023/06/12 10:53:23;;;;;;;5.20;3.30;;;32.00;68.90;;;;;;5032838;28;20030;-33
2023/06/12 10:55:55;;;;;;;5.65;3.10;;;32.10;69.70;;;;;;5032460;28;20623;-35
2023/06/12 10:58:21;;;;;;;7.20;2.85;;;32.10;69.80;;;;;;5028111;28;20029;-50
2023/06/12 11:00:51;;;;;;;3.25;2.65;;;32.00;71.80;;;;;;5028012;28;20127;-33
2023/06/12 11:03:22;;;;;;;3.13;2.80;;;31.60;68.60;;;;;;5025517;28;20029;-35
2023/06/12 11:05:50;;;;;;;2.90;2.53;;;31.20;69.60;;;;;;5029686;28;20072;-33
2023/06/12 11:08:16;;;;;;;4.35;2.53;;;31.20;69.90;;;;;;5032788;28;20033;-38
2023/06/12 11:10:42;;;;;;;5.20;3.67;;;30.90;69.70;;;;;;5032547;28;20109;-31
2023/06/12 11:13:07;;;;;;;3.03;2.78;;;30.70;69.70;;;;;;5029727;28;20028;-33
2023/06/12 11:15:41;;;;;;;6.25;3.63;;;31.00;70.20;;;;;;5032652;28;20025;-36
2023/06/12 11:18:08;;;;;;;2.75;2.55;;;31.10;70.20;;;;;;5032668;28;20071;-32
2023/06/12 11:20:34;;;;;;;3.53;3.15;;;31.20;71.40;;;;;;5030216;28;20025;-35
2023/06/12 11:23:01;;;;;;;3.33;3.03;;;31.20;70.30;;;;;;5032678;28;20025;-32
2023/06/12 11:25:27;;;;;;;3.28;2.95;;;31.20;70.20;;;;;;5032298;28;20096;-44
2023/06/12 11:27:55;;;;;;;4.30;3.20;;;31.40;70.20;;;;;;5014500;28;20105;-35
2023/06/12 11:30:23;;;;;;;3.53;2.63;;;31.70;69.10;;;;;;5030249;28;20244;-36
2023/06/12 11:32:49;;;;;;;5.90;2.75;;;31.80;68.80;;;;;;5031198;28;20036;-31
2023/06/12 11:35:15;;;;;;;4.13;3.05;;;31.70;68.90;;;;;;5026803;28;20022;-30
2023/06/12 11:37:40;;;;;;;3.20;2.90;;;31.80;69.90;;;;;;5032700;28;20486;-32
2023/06/12 11:40:11;;;;;;;7.55;3.50;;;31.80;70.50;;;;;;5020162;28;20029;-31
2023/06/12 11:42:44;;;;;;;3.33;3.00;;;31.80;71.00;;;;;;5015621;28;20026;-33
2023/06/12 11:45:14;;;;;;;3.78;3.15;;;31.70;69.70;;;;;;5032457;28;20018;-40
2023/06/12 11:47:44;;;;;;;8.13;3.83;;;31.60;70.40;;;;;;5029693;28;20025;-40
2023/06/12 11:50:16;;;;;;;3.22;2.92;;;31.70;70.20;;;;;;4995586;28;20030;-42
2023/06/12 11:52:44;;;;;;;6.97;3.55;;;31.80;71.50;;;;;;5030587;28;20041;-57
2023/06/12 11:55:17;;;;;;;3.58;2.90;;;31.90;69.40;;;;;;5033230;28;20030;-40
2023/06/12 11:57:47;;;;;;;14.20;3.75;;;32.00;69.40;;;;;;5033170;28;20395;-44
2023/06/12 12:00:16;;;;;;;3.28;2.97;;;31.90;68.50;;;;;;5036320;28;20029;-41
2023/06/12 12:02:44;;;;;;;3.85;2.85;;;31.70;67.80;;;;;;5036051;28;20124;-46
2023/06/12 12:05:11;;;;;;;4.10;3.47;;;31.80;66.50;;;;;;5034153;28;20529;-43
2023/06/12 12:07:39;;;;;;;;;;;31.50;68.40;;;;;;5029150;28;20040;-40
2023/06/12 12:10:10;;;;;;;3.90;3.38;;;31.40;70.50;;;;;;5036092;28;19909;-41
2023/06/12 12:12:49;;;;;;;5.10;3.20;;;31.50;70.20;;;;;;5032983;28;20042;-40
2023/06/12 12:15:15;;;;;;;4.13;3.35;;;31.40;69.40;;;;;;5031047;28;20541;-36
2023/06/12 12:17:43;;;;;;;9.40;3.45;;;31.40;69.90;;;;;;5012511;28;20026;-41
2023/06/12 12:20:17;;;;;;;5.97;3.15;;;31.20;68.80;;;;;;5015845;28;20112;-41
2023/06/12 12:22:45;;;;;;;6.03;3.30;;;31.00;68.10;;;;;;5016025;28;20057;-41
2023/06/12 12:25:20;;;;;;;4.78;2.90;;;31.00;67.90;;;;;;5017733;28;20403;-40
2023/06/12 12:27:46;;;;;;;3.40;3.10;;;31.00;69.00;;;;;;5019026;28;20030;-42
2023/06/12 12:30:15;;;;;;;3.85;3.13;;;30.90;66.10;;;;;;5034875;28;20083;-39
2023/06/12 12:32:45;;;;;;;10.40;2.85;;;30.80;67.10;;;;;;5027467;28;20030;-42
2023/06/12 12:35:12;;;;;;;3.78;2.78;;;30.80;67.50;;;;;;5015835;28;20036;-40
2023/06/12 12:37:38;;;;;;;3.22;2.90;;;30.60;67.60;;;;;;5013094;28;20026;-42
2023/06/12 12:40:09;;;;;;;5.80;2.83;;;30.60;68.30;;;;;;4996125;28;20031;-40
2023/06/12 12:42:35;;;;;;;3.40;3.10;;;30.60;69.30;;;;;;4996436;28;20080;-40
2023/06/12 12:45:01;;;;;;;6.05;2.72;;;30.90;69.70;;;;;;5016522;28;20136;-41
2023/06/12 12:47:27;;;;;;;5.63;3.08;;;31.30;68.90;;;;;;5014215;28;20022;-44
2023/06/12 12:49:52;;;;;;;3.15;2.85;;;31.50;68.50;;;;;;5007832;28;20075;-42